Aérodrome :
LOGIN :

S'inscrire | Disclaimer

   EN    FR    IT 

 










Légende :    VFR   VFR Marginal   IFR   IFR Intensif   IFR Très Intensif
Visi : 
Plafond : 
>= 8 km
>= 3000ft
5 à 8 km
1000 à 3000 ft
1500m à 5 km
500 à 1000 ft
800 à 1500m
200 à 500 ft
< 800m
< 200 ft
Symboles :   Orages  Brouillard  Fortes neiges  Fortes précipitations  Vent > 20 kt
SIGMETs :   Divers  Orages  Givrage  Turbulence  Onde Orograph.  Cendres Volcan.







- Altitude de l'aérodrome : 135 ft
- Code IATA : EDI
- Voir les cartes d'approche


EGPH - Edinburgh

DERNIER METAR :
  • 221620Z 11014KT CAVOK 21/05 Q1004

METARs EXPIRÉS :
  • 221550Z 11012KT CAVOK 21/04 Q1004
  • 221520Z 10012KT CAVOK 22/02 Q1004
  • 221450Z 11014KT 060V140 CAVOK 22/02 Q1004
  • 221420Z 11011KT 080V140 CAVOK 22/04 Q1005
  • 221350Z 10013KT CAVOK 22/05 Q1005

TAF AMD TAF EGPH
Valide du 22 à 13h jusqu'au 23 à 12h UTC


221303Z 2213/2312 13012KT CAVOK
BECMG 2217/2220 07009KT
PROB30
TEMPO 2300/2306 8000 BKN008
ATIS : +44 131 339 2823
Pas de NOTAMs connus pour ce terrain.
1 SIGMET publié pour la FIR Scottish (EGPX) :
 
Onde orographique forte
EGPX SIGMET 02 VALID 221525/221925 EGRR
EGPX SCOTTISH FIR SEV MTW FCST WI N5634 W00114 - N5617 W00808 - N5823 W00736 - N6100 W00644 - N6100 W00028 - N5634 W00114 FL040/100 STNR WKN=



MET'MAP, la Météo Aéronautique d'un coup d'oeil ! - Copyright ORBIFLY Décembre 2007 - Disclaimer

ORBIFLY MET'MAP TEAM :

Programmation & Développement : Alexandra Zaïnal
Conception & Développement : Baudouin d'Aumeries
Co-Programmation & Développement : Marc-Olivier Méhu
Soutien technique & logistique : Manuel Goepfert

Contact : metmap@orbifly.com




SOURCES & CREDITS :

   NOAA